createdAt,value
2023-10-04T00:01:11.713Z,76.73
2023-10-04T00:03:34.740Z,76.47
2023-10-04T00:05:57.595Z,76.71
2023-10-04T00:08:20.341Z,76.46
2023-10-04T00:10:42.973Z,76.07
2023-10-04T00:13:05.606Z,76.02
2023-10-04T00:15:30.575Z,76.04
2023-10-04T00:17:54.406Z,75.78
2023-10-04T00:20:18.261Z,75.89
2023-10-04T00:22:42.146Z,76.04
2023-10-04T00:25:05.337Z,76.17
2023-10-04T00:27:28.090Z,76.26
2023-10-04T00:29:51.167Z,76.17
2023-10-04T00:32:14.576Z,76.39
2023-10-04T00:34:40.725Z,76.22
2023-10-04T00:37:03.385Z,76.15
2023-10-04T00:39:26.406Z,76.29
2023-10-04T00:41:52.102Z,76.47
2023-10-04T00:44:15.481Z,76.85
2023-10-04T00:46:42.349Z,76.93
2023-10-04T00:49:06.306Z,77.01
2023-10-04T00:51:36.717Z,77.00
2023-10-04T00:54:00.540Z,77.17
2023-10-04T00:56:25.817Z,77.43
2023-10-04T00:58:49.279Z,77.21
2023-10-04T01:01:12.151Z,77.55
2023-10-04T01:03:38.562Z,77.32
2023-10-04T01:06:02.875Z,77.28
2023-10-04T01:08:26.976Z,77.17
2023-10-04T01:10:51.032Z,77.24
2023-10-04T01:13:16.495Z,77.37
2023-10-04T01:15:40.858Z,77.37
2023-10-04T01:18:08.566Z,77.63
2023-10-04T01:20:32.124Z,77.98
2023-10-04T01:23:02.314Z,78.35
2023-10-04T01:25:26.123Z,78.57
2023-10-04T01:27:49.153Z,78.41
2023-10-04T01:30:12.756Z,78.27
2023-10-04T01:32:35.506Z,78.29
2023-10-04T01:35:00.576Z,77.84
2023-10-04T01:37:23.244Z,77.52
2023-10-04T01:39:46.213Z,77.38
2023-10-04T01:42:08.990Z,77.81
2023-10-04T01:44:51.941Z,77.65
2023-10-04T01:47:15.237Z,77.68
2023-10-04T01:49:38.547Z,77.77
2023-10-04T01:52:01.263Z,77.85
2023-10-04T01:54:24.273Z,78.18
2023-10-04T01:56:47.037Z,78.37
2023-10-04T01:59:09.696Z,78.63
2023-10-04T02:01:32.769Z,79.05
2023-10-04T02:03:55.463Z,79.08
2023-10-04T02:06:18.870Z,79.20
2023-10-04T02:08:45.223Z,78.96
2023-10-04T02:11:09.897Z,79.09
2023-10-04T02:13:34.056Z,79.73
2023-10-04T02:15:58.542Z,80.21
2023-10-04T02:18:22.709Z,80.09
2023-10-04T02:20:48.662Z,79.51
2023-10-04T02:23:11.633Z,79.17
2023-10-04T02:25:34.784Z,78.89
2023-10-04T02:28:02.318Z,78.41
2023-10-04T02:30:27.960Z,78.06
2023-10-04T02:32:54.439Z,77.92
2023-10-04T02:35:58.614Z,77.05
2023-10-04T02:38:24.430Z,77.02
2023-10-04T02:40:49.875Z,77.22
2023-10-04T02:43:13.056Z,77.17
2023-10-04T02:45:38.317Z,77.66
2023-10-04T02:48:01.182Z,77.07
2023-10-04T02:50:25.823Z,76.57
2023-10-04T02:52:51.617Z,75.68
2023-10-04T02:55:17.155Z,74.88
2023-10-04T02:57:39.957Z,74.20
2023-10-04T03:00:12.777Z,73.00
2023-10-04T03:02:37.449Z,72.02
2023-10-04T03:05:00.723Z,71.31
2023-10-04T03:07:24.084Z,70.34
2023-10-04T03:09:47.222Z,70.54
2023-10-04T03:12:13.958Z,70.10
2023-10-04T03:14:37.390Z,69.64
2023-10-04T03:17:01.905Z,69.66
2023-10-04T03:19:25.315Z,69.17
2023-10-04T03:21:48.547Z,69.34
2023-10-04T03:24:12.294Z,69.20
2023-10-04T03:26:38.320Z,69.49
2023-10-04T03:29:02.550Z,69.48
2023-10-04T03:31:28.435Z,68.37
2023-10-04T03:33:54.730Z,68.51
2023-10-04T03:36:21.307Z,68.56
2023-10-04T03:38:53.789Z,68.57
2023-10-04T03:41:18.145Z,68.60
2023-10-04T03:43:42.255Z,68.37
2023-10-04T03:46:20.509Z,67.92
2023-10-04T03:48:50.335Z,68.19
2023-10-04T03:51:14.056Z,68.07
2023-10-04T03:53:37.671Z,68.11
2023-10-04T03:56:00.433Z,67.88
2023-10-04T03:58:24.508Z,68.32
2023-10-04T04:00:48.701Z,67.05
2023-10-04T04:03:11.868Z,66.66
2023-10-04T04:05:39.951Z,67.32
2023-10-04T04:08:05.058Z,66.14
2023-10-04T04:10:27.658Z,66.18
2023-10-04T04:12:51.620Z,66.31
2023-10-04T04:15:16.311Z,65.38
2023-10-04T04:17:41.101Z,66.09
2023-10-04T04:20:20.646Z,66.29
2023-10-04T04:22:55.393Z,65.68
2023-10-04T04:25:21.027Z,65.42
2023-10-04T04:27:51.538Z,65.83
2023-10-04T04:30:22.747Z,65.73
2023-10-04T04:32:58.044Z,65.52
2023-10-04T04:35:25.702Z,65.44
2023-10-04T04:37:49.601Z,64.93
2023-10-04T04:40:18.494Z,64.76
2023-10-04T04:42:48.612Z,65.52
2023-10-04T04:45:26.893Z,65.26
2023-10-04T04:47:50.533Z,64.62
2023-10-04T04:50:15.313Z,64.95
2023-10-04T04:52:38.067Z,64.28
2023-10-04T04:55:02.352Z,64.55
2023-10-04T04:57:25.064Z,64.23
2023-10-04T04:59:47.785Z,64.24
2023-10-04T05:02:11.023Z,63.99
2023-10-04T05:04:33.923Z,64.02
2023-10-04T05:06:57.618Z,63.79
2023-10-04T05:09:20.430Z,63.90
2023-10-04T05:11:43.093Z,63.51
2023-10-04T05:14:07.879Z,63.82
2023-10-04T05:16:31.631Z,63.78
2023-10-04T05:18:55.553Z,63.81
2023-10-04T05:21:18.531Z,63.93
2023-10-04T05:23:41.736Z,63.51
2023-10-04T05:26:05.448Z,63.80
2023-10-04T05:28:31.431Z,63.12
2023-10-04T05:30:54.228Z,62.96
2023-10-04T05:33:19.684Z,62.99
2023-10-04T05:35:47.131Z,62.83
2023-10-04T05:38:10.034Z,62.81
2023-10-04T05:40:35.231Z,62.08
2023-10-04T05:42:58.336Z,61.98
2023-10-04T05:45:26.428Z,61.80
2023-10-04T05:47:51.459Z,61.65
2023-10-04T05:50:16.219Z,60.77
2023-10-04T05:52:40.649Z,60.45
2023-10-04T05:55:04.628Z,59.05
2023-10-04T05:57:27.807Z,58.40
2023-10-04T05:59:50.893Z,57.91
2023-10-04T06:02:13.702Z,59.12
2023-10-04T06:04:36.516Z,57.49
2023-10-04T06:06:59.211Z,56.40
2023-10-04T06:09:30.005Z,56.85
2023-10-04T06:11:52.919Z,55.56
2023-10-04T06:14:15.628Z,55.57
2023-10-04T06:16:39.244Z,56.04
2023-10-04T06:19:05.567Z,55.41
2023-10-04T06:21:36.052Z,56.58
2023-10-04T06:23:58.705Z,55.70
2023-10-04T06:26:22.058Z,54.24
2023-10-04T06:28:44.792Z,54.84
2023-10-04T06:31:07.649Z,55.08
2023-10-04T06:33:30.794Z,54.55
2023-10-04T06:35:53.508Z,54.96
2023-10-04T06:38:16.320Z,54.80
2023-10-04T06:40:39.770Z,55.71
2023-10-04T06:43:07.671Z,55.18
2023-10-04T06:45:30.491Z,54.83
2023-10-04T06:47:57.970Z,55.89
2023-10-04T06:50:40.936Z,55.08
2023-10-04T06:53:05.996Z,55.56
2023-10-04T06:55:29.146Z,55.14
2023-10-04T06:57:52.586Z,55.44
2023-10-04T07:00:24.221Z,55.84
2023-10-04T07:02:50.646Z,57.44
2023-10-04T07:05:25.225Z,56.15
2023-10-04T07:07:50.384Z,55.74
2023-10-04T07:10:16.977Z,55.85
2023-10-04T07:12:40.312Z,55.72
2023-10-04T07:15:05.372Z,56.10
2023-10-04T07:17:31.201Z,55.87
2023-10-04T07:19:53.871Z,56.13
2023-10-04T07:22:16.693Z,56.43
2023-10-04T07:24:39.485Z,56.68
2023-10-04T07:27:03.434Z,56.47
2023-10-04T07:29:27.931Z,56.63
2023-10-04T07:31:52.349Z,56.43
2023-10-04T07:34:15.035Z,57.11
2023-10-04T07:36:37.822Z,56.92
2023-10-04T07:39:00.527Z,56.60
2023-10-04T07:41:23.273Z,56.84
2023-10-04T07:43:45.940Z,57.52
2023-10-04T07:46:09.768Z,57.52
2023-10-04T07:48:33.024Z,57.87
2023-10-04T07:50:57.190Z,57.89
2023-10-04T07:53:22.577Z,56.97
2023-10-04T07:55:45.333Z,56.78
2023-10-04T07:58:09.996Z,57.88
2023-10-04T08:00:35.305Z,57.13
2023-10-04T08:02:59.037Z,57.85
2023-10-04T08:05:27.364Z,57.50
2023-10-04T08:07:55.456Z,57.84
2023-10-04T08:10:19.101Z,57.21
2023-10-04T08:12:43.554Z,57.20
2023-10-04T08:15:08.747Z,57.39
2023-10-04T08:17:32.717Z,57.40
2023-10-04T08:19:55.794Z,56.76
2023-10-04T08:22:18.674Z,56.02
2023-10-04T08:24:42.162Z,56.17
2023-10-04T08:27:06.422Z,56.51
2023-10-04T08:29:29.191Z,56.06
2023-10-04T08:31:52.209Z,55.56
2023-10-04T08:34:18.017Z,55.44
2023-10-04T08:36:40.843Z,54.67
2023-10-04T08:39:12.194Z,54.64
2023-10-04T08:41:36.296Z,54.08
2023-10-04T08:43:59.039Z,54.71
2023-10-04T08:46:23.033Z,55.16
2023-10-04T08:48:54.871Z,55.66
2023-10-04T08:51:29.888Z,55.89
2023-10-04T08:54:24.189Z,55.90
2023-10-04T08:57:00.079Z,55.63
2023-10-04T08:59:25.476Z,55.40
2023-10-04T09:01:49.283Z,56.04
2023-10-04T09:04:12.793Z,55.91
2023-10-04T09:06:36.190Z,55.77
2023-10-04T09:08:59.041Z,55.41
2023-10-04T09:11:21.806Z,56.00
2023-10-04T09:13:46.000Z,55.97
2023-10-04T09:16:29.765Z,56.23
2023-10-04T09:19:05.046Z,55.80
2023-10-04T09:21:28.659Z,55.36
2023-10-04T09:24:10.049Z,54.49
2023-10-04T09:26:32.951Z,54.00
2023-10-04T09:28:55.670Z,54.07
2023-10-04T09:31:20.467Z,52.90
2023-10-04T09:33:45.625Z,52.57
2023-10-04T09:36:10.985Z,52.20
2023-10-04T09:38:37.190Z,52.24
2023-10-04T09:41:04.106Z,51.44
2023-10-04T09:43:38.466Z,50.67
2023-10-04T09:46:01.928Z,50.55
2023-10-04T09:48:31.675Z,50.37
2023-10-04T09:51:07.275Z,50.81
2023-10-04T09:53:31.033Z,49.70
2023-10-04T09:55:55.699Z,49.19
2023-10-04T09:58:28.633Z,49.79
2023-10-04T10:00:56.936Z,48.84
2023-10-04T10:03:27.642Z,48.87
2023-10-04T10:05:53.601Z,49.19
2023-10-04T10:08:19.470Z,48.78
2023-10-04T10:10:48.611Z,48.14
2023-10-04T10:13:11.682Z,47.57
2023-10-04T10:15:35.453Z,46.67
2023-10-04T10:18:01.044Z,46.19
2023-10-04T10:20:24.092Z,45.85
2023-10-04T10:23:01.696Z,45.82
2023-10-04T10:25:27.024Z,45.52
2023-10-04T10:27:49.900Z,45.92
2023-10-04T10:30:13.984Z,45.83
2023-10-04T10:32:36.940Z,45.62
2023-10-04T10:35:09.967Z,44.81
2023-10-04T10:37:40.070Z,44.26
2023-10-04T10:40:09.530Z,45.27
2023-10-04T10:43:08.913Z,46.46
2023-10-04T10:45:31.922Z,44.97
2023-10-04T10:48:00.339Z,45.35
2023-10-04T10:50:34.461Z,45.85
2023-10-04T10:53:04.726Z,45.96
2023-10-04T10:55:28.898Z,46.69
2023-10-04T10:57:52.117Z,45.75
2023-10-04T11:00:24.077Z,46.32
2023-10-04T11:02:49.875Z,46.24
2023-10-04T11:05:14.202Z,46.50
2023-10-04T11:07:39.140Z,47.47
2023-10-04T11:10:01.827Z,46.45
2023-10-04T11:12:25.166Z,46.60
2023-10-04T11:14:47.986Z,46.04
2023-10-04T11:17:12.163Z,46.55
2023-10-04T11:19:35.650Z,46.47
2023-10-04T11:22:00.577Z,45.17
2023-10-04T11:24:23.432Z,45.06
2023-10-04T11:26:46.418Z,45.46
2023-10-04T11:29:10.383Z,45.45
2023-10-04T11:31:45.169Z,45.99
2023-10-04T11:34:10.268Z,45.43
2023-10-04T11:36:37.111Z,45.75
2023-10-04T11:39:00.512Z,44.53
2023-10-04T11:41:30.136Z,43.91
2023-10-04T11:43:54.977Z,44.82
2023-10-04T11:46:17.731Z,45.54
2023-10-04T11:48:40.797Z,44.85
2023-10-04T11:51:06.209Z,45.92
2023-10-04T11:53:32.000Z,45.04
2023-10-04T11:56:02.150Z,45.73
2023-10-04T11:58:25.087Z,44.70
2023-10-04T12:00:48.014Z,43.65
2023-10-04T12:03:11.408Z,44.29
2023-10-04T12:05:34.609Z,43.75
2023-10-04T12:07:59.760Z,43.74
2023-10-04T12:10:23.301Z,43.82
2023-10-04T12:12:46.041Z,44.36
2023-10-04T12:15:09.455Z,44.94
2023-10-04T12:17:32.281Z,45.12
2023-10-04T12:19:56.614Z,45.71
2023-10-04T12:22:20.514Z,46.13
2023-10-04T12:24:46.448Z,46.10
2023-10-04T12:27:10.107Z,45.79
2023-10-04T12:29:33.564Z,45.35
2023-10-04T12:31:57.285Z,44.53
2023-10-04T12:34:20.189Z,44.35
2023-10-04T12:36:55.162Z,44.45
2023-10-04T12:39:20.506Z,44.25
2023-10-04T12:41:43.297Z,44.61
2023-10-04T12:44:07.190Z,44.18
2023-10-04T12:46:29.962Z,43.76
2023-10-04T12:48:52.694Z,43.23
2023-10-04T12:51:18.099Z,42.93
2023-10-04T12:53:40.942Z,42.72
2023-10-04T12:56:05.179Z,42.98
2023-10-04T12:58:31.660Z,42.46
2023-10-04T13:00:55.144Z,43.20
2023-10-04T13:03:18.758Z,42.62
2023-10-04T13:05:43.513Z,42.22
2023-10-04T13:08:09.500Z,42.70
2023-10-04T13:10:33.971Z,42.73
2023-10-04T13:12:57.988Z,43.68
2023-10-04T13:15:20.860Z,43.02
2023-10-04T13:18:27.182Z,43.65
2023-10-04T13:20:51.693Z,42.92
2023-10-04T13:23:14.366Z,43.76
2023-10-04T13:25:37.603Z,44.03
2023-10-04T13:28:03.289Z,44.04
2023-10-04T13:30:29.156Z,44.08
2023-10-04T13:32:54.064Z,44.01
2023-10-04T13:35:17.742Z,43.72
2023-10-04T13:37:40.888Z,44.05
2023-10-04T13:40:10.283Z,43.75
2023-10-04T13:42:33.045Z,42.91
2023-10-04T13:44:58.490Z,43.18
2023-10-04T13:47:21.400Z,42.69
2023-10-04T13:49:44.204Z,43.37
2023-10-04T13:52:06.887Z,44.02
2023-10-04T13:54:33.113Z,43.14
2023-10-04T13:56:55.741Z,44.34
2023-10-04T13:59:18.444Z,44.24
2023-10-04T14:01:43.426Z,45.21
2023-10-04T14:04:06.412Z,46.62
2023-10-04T14:06:29.146Z,45.56
2023-10-04T14:08:52.830Z,45.87
2023-10-04T14:11:16.526Z,45.84
2023-10-04T14:13:40.013Z,46.49
2023-10-04T14:16:03.764Z,46.29
2023-10-04T14:18:27.168Z,46.98
2023-10-04T14:20:50.062Z,47.23
2023-10-04T14:23:13.508Z,47.21
2023-10-04T14:25:36.170Z,47.03
2023-10-04T14:27:58.933Z,47.01
2023-10-04T14:30:25.102Z,47.41
2023-10-04T14:32:53.080Z,47.01
2023-10-04T14:35:16.327Z,46.93
2023-10-04T14:37:39.329Z,47.09
2023-10-04T14:40:05.028Z,46.65
2023-10-04T14:42:27.707Z,46.98
2023-10-04T14:44:50.659Z,48.07
2023-10-04T14:47:14.334Z,48.44
2023-10-04T14:49:43.760Z,49.57
2023-10-04T14:52:07.499Z,49.31
2023-10-04T14:54:34.825Z,48.64
2023-10-04T14:56:57.920Z,50.20
2023-10-04T14:59:20.539Z,49.70
2023-10-04T15:01:43.310Z,50.66
2023-10-04T15:04:06.529Z,49.51
2023-10-04T15:06:30.888Z,50.75
2023-10-04T15:08:53.972Z,50.73
2023-10-04T15:11:28.237Z,50.80
2023-10-04T15:13:50.870Z,51.72
2023-10-04T15:16:13.574Z,52.54
2023-10-04T15:18:36.366Z,53.65
2023-10-04T15:20:59.109Z,54.48
2023-10-04T15:23:21.847Z,54.31
2023-10-04T15:25:44.515Z,54.82
2023-10-04T15:28:17.841Z,54.29
2023-10-04T15:30:41.340Z,55.38
2023-10-04T15:33:04.543Z,55.59
2023-10-04T15:35:27.657Z,55.54
2023-10-04T15:37:53.259Z,56.65
2023-10-04T15:40:16.229Z,59.52
2023-10-04T15:42:38.824Z,60.09
2023-10-04T15:45:01.651Z,61.58
2023-10-04T15:47:24.447Z,62.04
2023-10-04T15:49:47.171Z,61.60
2023-10-04T15:52:10.122Z,62.36
2023-10-04T15:54:33.850Z,63.59
2023-10-04T15:56:57.140Z,62.98
2023-10-04T15:59:19.839Z,63.27
2023-10-04T16:01:42.498Z,63.10
2023-10-04T16:04:06.013Z,63.43
2023-10-04T16:06:29.019Z,62.78
2023-10-04T16:08:52.198Z,63.19
2023-10-04T16:11:14.875Z,62.70
2023-10-04T16:13:37.763Z,63.05
2023-10-04T16:16:01.516Z,63.67
2023-10-04T16:18:30.255Z,63.79
2023-10-04T16:20:53.211Z,64.64
2023-10-04T16:23:15.945Z,64.65
2023-10-04T16:25:40.893Z,65.19
2023-10-04T16:28:03.864Z,65.27
2023-10-04T16:30:26.767Z,65.37
2023-10-04T16:32:50.333Z,65.26
2023-10-04T16:35:16.719Z,65.60
2023-10-04T16:37:39.458Z,65.77
2023-10-04T16:40:07.479Z,66.44
2023-10-04T16:42:30.417Z,66.48
2023-10-04T16:44:53.225Z,66.61
2023-10-04T16:47:16.038Z,66.76
2023-10-04T16:49:39.351Z,66.77
2023-10-04T16:52:02.183Z,66.02
2023-10-04T16:54:24.852Z,66.12
2023-10-04T16:56:49.454Z,66.21
2023-10-04T16:59:12.178Z,66.17
2023-10-04T17:01:34.945Z,66.23
2023-10-04T17:03:57.767Z,66.95
2023-10-04T17:06:22.762Z,66.99
2023-10-04T17:08:45.748Z,67.23
2023-10-04T17:11:08.439Z,67.34
2023-10-04T17:13:32.095Z,66.52
2023-10-04T17:15:55.055Z,67.16
2023-10-04T17:18:18.612Z,67.44
2023-10-04T17:20:41.868Z,67.32
2023-10-04T17:23:04.718Z,67.54
2023-10-04T17:25:27.466Z,67.23
2023-10-04T17:27:50.204Z,67.19
2023-10-04T17:30:21.618Z,67.50
2023-10-04T17:32:46.677Z,67.74
2023-10-04T17:35:10.034Z,67.97
2023-10-04T17:37:33.130Z,68.11
2023-10-04T17:39:55.754Z,68.41
2023-10-04T17:42:18.856Z,68.52
2023-10-04T17:44:43.259Z,68.60
2023-10-04T17:47:06.678Z,68.35
2023-10-04T17:49:29.565Z,68.37
2023-10-04T17:51:56.734Z,68.30
2023-10-04T17:54:20.406Z,68.05
2023-10-04T17:56:44.365Z,67.74
2023-10-04T17:59:07.834Z,67.43
2023-10-04T18:01:32.077Z,66.99
2023-10-04T18:03:55.105Z,66.98
2023-10-04T18:06:20.060Z,67.06
2023-10-04T18:08:42.835Z,66.53
2023-10-04T18:11:05.777Z,66.51
2023-10-04T18:13:29.734Z,66.31
2023-10-04T18:15:53.723Z,65.58
2023-10-04T18:18:18.818Z,65.09
2023-10-04T18:20:46.055Z,64.78
2023-10-04T18:23:09.456Z,65.13
2023-10-04T18:25:33.251Z,65.33
2023-10-04T18:27:56.308Z,65.71
2023-10-04T18:30:19.483Z,66.19
2023-10-04T18:32:42.574Z,66.18
2023-10-04T18:35:07.366Z,66.83
2023-10-04T18:37:30.569Z,67.10
2023-10-04T18:39:53.577Z,67.26
2023-10-04T18:42:17.530Z,67.40
2023-10-04T18:44:41.858Z,67.82
2023-10-04T18:47:05.632Z,68.14
2023-10-04T18:49:29.821Z,68.53
2023-10-04T18:51:52.856Z,68.59
2023-10-04T18:54:16.991Z,69.02
2023-10-04T18:56:40.504Z,69.27
2023-10-04T18:59:03.587Z,69.54
2023-10-04T19:01:27.045Z,69.56
2023-10-04T19:03:51.319Z,69.75
2023-10-04T19:06:14.413Z,70.02
2023-10-04T19:08:40.380Z,70.62
2023-10-04T19:11:03.347Z,70.29
2023-10-04T19:13:29.727Z,70.33
2023-10-04T19:15:54.950Z,70.38
2023-10-04T19:18:21.449Z,70.54
2023-10-04T19:20:44.753Z,70.39
2023-10-04T19:23:09.696Z,70.54
2023-10-04T19:25:33.011Z,70.53
2023-10-04T19:27:59.592Z,70.73
2023-10-04T19:30:23.239Z,70.80
2023-10-04T19:32:46.993Z,70.90
2023-10-04T19:35:15.178Z,70.74
2023-10-04T19:37:37.897Z,71.04
2023-10-04T19:40:03.083Z,71.00
2023-10-04T19:42:28.086Z,71.03
2023-10-04T19:44:50.898Z,71.04
2023-10-04T19:47:19.260Z,71.44
2023-10-04T19:49:43.361Z,71.52
2023-10-04T19:52:06.403Z,71.53
2023-10-04T19:54:29.167Z,71.56
2023-10-04T19:56:51.939Z,71.67
2023-10-04T19:59:15.103Z,72.16
2023-10-04T20:01:37.905Z,72.31
2023-10-04T20:04:03.828Z,72.07
2023-10-04T20:06:27.082Z,71.90
2023-10-04T20:08:50.199Z,71.86
2023-10-04T20:11:13.111Z,71.75
2023-10-04T20:13:36.798Z,72.09
2023-10-04T20:16:03.112Z,71.95
2023-10-04T20:18:26.831Z,72.16
2023-10-04T20:20:51.365Z,72.26
2023-10-04T20:23:14.421Z,72.48
2023-10-04T20:25:38.429Z,72.43
2023-10-04T20:28:03.306Z,72.56
2023-10-04T20:30:31.188Z,72.65
2023-10-04T20:32:54.368Z,72.73
2023-10-04T20:35:18.417Z,72.95
2023-10-04T20:37:41.842Z,73.03
2023-10-04T20:40:10.674Z,72.67
2023-10-04T20:42:33.668Z,72.75
2023-10-04T20:44:56.421Z,72.66
2023-10-04T20:47:19.186Z,72.57
2023-10-04T20:49:42.413Z,72.65
2023-10-04T20:52:06.009Z,72.77
2023-10-04T20:54:28.781Z,72.65
2023-10-04T20:56:51.672Z,72.48
2023-10-04T20:59:14.851Z,72.57
2023-10-04T21:01:39.874Z,72.78
2023-10-04T21:04:02.809Z,72.74
2023-10-04T21:06:25.661Z,72.55
2023-10-04T21:08:48.322Z,72.27
2023-10-04T21:11:12.617Z,72.18
2023-10-04T21:13:36.629Z,72.16
2023-10-04T21:16:00.016Z,72.54
2023-10-04T21:18:23.939Z,72.63
2023-10-04T21:20:46.994Z,72.70
2023-10-04T21:23:09.721Z,72.86
2023-10-04T21:25:32.503Z,72.92
2023-10-04T21:27:55.708Z,72.93
2023-10-04T21:30:19.396Z,73.13
2023-10-04T21:32:46.117Z,73.15
2023-10-04T21:35:18.750Z,73.13
2023-10-04T21:37:42.739Z,72.99
2023-10-04T21:40:07.996Z,73.00
2023-10-04T21:42:30.642Z,73.16
2023-10-04T21:44:54.563Z,73.16
2023-10-04T21:47:29.449Z,73.21
2023-10-04T21:49:52.990Z,73.12
2023-10-04T21:52:21.239Z,73.25
2023-10-04T21:54:46.932Z,73.02
2023-10-04T21:57:09.665Z,72.95
2023-10-04T21:59:36.447Z,72.92
2023-10-04T22:02:02.511Z,72.79
2023-10-04T22:04:26.926Z,72.74
2023-10-04T22:06:50.666Z,72.91
2023-10-04T22:09:19.505Z,73.09
2023-10-04T22:11:42.077Z,73.08
2023-10-04T22:14:05.165Z,73.07
2023-10-04T22:16:28.255Z,73.25
2023-10-04T22:18:54.247Z,73.51
2023-10-04T22:21:17.260Z,73.69
2023-10-04T22:23:40.027Z,74.40
2023-10-04T22:26:02.684Z,74.32
2023-10-04T22:30:54.642Z,74.66
2023-10-04T22:33:19.679Z,74.66
2023-10-04T22:35:42.352Z,74.83
2023-10-04T22:38:10.571Z,74.87
2023-10-04T22:40:33.350Z,74.84
2023-10-04T22:42:57.964Z,75.06
2023-10-04T22:45:21.313Z,75.01
2023-10-04T22:47:48.214Z,75.14
2023-10-04T22:50:15.833Z,75.04
2023-10-04T22:52:39.556Z,75.00
2023-10-04T22:55:03.367Z,75.00
2023-10-04T22:57:26.433Z,75.15
2023-10-04T22:59:49.475Z,74.87
2023-10-04T23:02:12.318Z,74.96
2023-10-04T23:04:35.299Z,75.15
2023-10-04T23:07:00.792Z,75.41
2023-10-04T23:09:26.125Z,75.62
2023-10-04T23:11:48.820Z,75.17
2023-10-04T23:14:11.338Z,75.38
2023-10-04T23:16:34.213Z,75.33
2023-10-04T23:18:56.878Z,75.41
2023-10-04T23:21:25.604Z,75.70
2023-10-04T23:24:09.641Z,75.96
2023-10-04T23:26:32.409Z,76.00
2023-10-04T23:28:55.197Z,75.89
2023-10-04T23:31:18.692Z,76.01
2023-10-04T23:33:41.521Z,76.04
2023-10-04T23:36:07.933Z,76.00
2023-10-04T23:38:35.076Z,75.95
2023-10-04T23:41:06.760Z,76.05
2023-10-04T23:43:30.665Z,75.57
2023-10-04T23:45:58.468Z,75.80
2023-10-04T23:48:34.231Z,75.76
2023-10-04T23:50:57.175Z,75.56
2023-10-04T23:53:25.237Z,75.86
2023-10-04T23:55:49.815Z,76.29
2023-10-04T23:58:57.473Z,76.49
